LROD Airport Information

Runway Information
Runway 01 Length 5906 ft width 98 ft
Elevation 465 ft Threshold 0 ft Heading 11
Runway 19 Length 5906 ft Width 98 ft
Elevation 450 ft Threshold 0 ft Heading 191
Airport Frequencies
Type APP Name APP Frequency 120.2 MHZ
Type TWR Name TWR Frequency 120.2 MHZ
Airport Navaids
Type NDB Name Oradea Frequency 418 KHZ
Airport Weather Information & NOTAM
ADDS - METARS form results

(1551 UTC 01 March 2021)
Data provider http://aviationweather.gov/metar/data/
 
METAR text: LROD 011530Z 02012KT CAVOK 09/M00 Q1032
Conditions at: LROD (ORADEA , RO) observed 1530 UTC 01 March 2021
Temperature: 9.0°C (48°F)
Dewpoint: 0.0°C (32°F) [RH = 53%]
Pressure (altimeter): 30.47 inches Hg (1032.0 mb)
Winds: from the NNE (20 degrees) at 14 MPH (12 knots; 6.2 m/s)
Visibility: 6 or more miles (10+ km)
Ceiling: ceiling and visibility are OK
Clouds: unknown
Weather: no significant weather observed at this time

METAR text: LROD 011500Z 02013KT CAVOK 10/M00 Q1032
Conditions at: LROD (ORADEA , RO) observed 1500 UTC 01 March 2021
Temperature: 10.0°C (50°F)
Dewpoint: 0.0°C (32°F) [RH = 50%]
Pressure (altimeter): 30.47 inches Hg (1032.0 mb)
Winds: from the NNE (20 degrees) at 15 MPH (13 knots; 6.7 m/s)
Visibility: 6 or more miles (10+ km)
Ceiling: ceiling and visibility are OK
Clouds: unknown
Weather: no significant weather observed at this time

Forecast for: LROD (ORADEA , RO)
Text: TAF LROD 011400Z 0115/0200 04010KT 9999 BKN035
Forecast period: 1500 to 1700 UTC 01 March 2021
Forecast type: FROM: standard forecast or significant change
Winds: from the NE (40 degrees) at 12 MPH (10 knots; 5.1 m/s)
Visibility: 6 or more miles (10+ km)
Ceiling: 3500 feet AGL
Clouds: broken clouds at 3500 feet AGL
Weather: no significant weather forecast for this period
Text: BECMG 0117/0119 VRB04KT
Forecast period: 1700 UTC 01 March 2021 to 0000 UTC 02 March 2021
Forecast type: BECOMING: Conditions expected to become as follows by 1900 UTC 01 March 2021
Winds: variable direction winds at 5 MPH (4 knots; 2.1 m/s)
Visibility: 6 or more miles (10+ km)
Ceiling: 3500 feet AGL
Clouds: broken clouds at 3500 feet AGL
Weather: no significant weather forecast for this period